Time;durP1;ratioP1;P1;durP2;ratioP2;P2;SDS_P1;SDS_P2;PMS_P1;PMS_P2;Temp;Humidity;BMP_temperature;BMP_pressure;BME280_temperature;BME280_humidity;BME280_pressure;Samples;Min_cycle;Max_cycle;Signal;HPM_P1;HPM_P2
2022/05/28 00:00:17;;;;;;;2.53;0.87;;;;;;;9.30;100.00;100832.09;5032502;28;21004;-77
2022/05/28 00:02:43;;;;;;;5.60;0.87;;;;;;;9.32;100.00;100838.00;5033405;28;20526;-76
2022/05/28 00:05:12;;;;;;;2.17;1.57;;;;;;;9.39;100.00;100832.28;5033911;28;20454;-76
2022/05/28 00:07:39;;;;;;;1.17;0.67;;;;;;;9.37;100.00;100829.03;5033536;28;20451;-75
2022/05/28 00:10:07;;;;;;;2.00;0.50;;;;;;;9.32;100.00;100822.59;5031733;28;20479;-77
2022/05/28 00:12:33;;;;;;;1.70;0.70;;;;;;;9.33;100.00;100824.19;5032389;28;20458;-76
2022/05/28 00:14:59;;;;;;;0.70;0.40;;;;;;;9.33;100.00;100813.38;5032883;28;20470;-75
2022/05/28 00:17:26;;;;;;;1.90;0.70;;;;;;;9.32;100.00;100817.19;5032722;28;20876;-75
2022/05/28 00:19:54;;;;;;;1.77;0.83;;;;;;;9.34;100.00;100809.63;5032159;28;20490;-75
2022/05/28 00:22:22;;;;;;;4.43;1.57;;;;;;;9.34;100.00;100814.19;5031755;28;20483;-75
2022/05/28 00:24:48;;;;;;;1.50;0.70;;;;;;;9.32;100.00;100811.78;5033218;28;20447;-75
2022/05/28 00:27:14;;;;;;;4.70;0.80;;;;;;;9.30;100.00;100813.97;5032480;28;20895;-75
2022/05/28 00:29:41;;;;;;;0.87;0.53;;;;;;;9.34;100.00;100809.63;5032149;28;20486;-76
2022/05/28 00:32:08;;;;;;;4.93;0.70;;;;;;;9.38;100.00;100804.41;5032211;28;20439;-73
2022/05/28 00:34:36;;;;;;;0.97;0.70;;;;;;;9.40;100.00;100804.16;5033391;28;20470;-72
2022/05/28 00:37:03;;;;;;;1.27;0.63;;;;;;;9.44;100.00;100800.59;5038459;28;20443;-70
2022/05/28 00:39:31;;;;;;;1.30;0.87;;;;;;;9.39;100.00;100802.53;5039221;28;20494;-73
2022/05/28 00:41:58;;;;;;;3.03;1.33;;;;;;;9.41;100.00;100797.66;5039629;28;20462;-70
2022/05/28 00:44:25;;;;;;;1.30;0.80;;;;;;;9.38;100.00;100796.31;5037922;28;20476;-77
2022/05/28 00:46:55;;;;;;;1.10;0.80;;;;;;;9.32;100.00;100795.56;5039708;28;20442;-77
2022/05/28 00:49:26;;;;;;;3.20;0.70;;;;;;;9.33;100.00;100801.78;5038087;28;20482;-76
2022/05/28 00:51:54;;;;;;;2.60;0.93;;;;;;;9.33;100.00;100793.66;5038740;28;20463;-76
2022/05/28 00:54:21;;;;;;;1.07;0.50;;;;;;;9.35;100.00;100784.19;5039636;28;20457;-77
2022/05/28 00:56:50;;;;;;;2.07;0.90;;;;;;;9.39;100.00;100778.22;5038841;28;20554;-76
2022/05/28 00:59:17;;;;;;;1.47;0.87;;;;;;;9.44;100.00;100781.66;5038424;28;20502;-77
2022/05/28 01:01:44;;;;;;;1.97;0.73;;;;;;;9.38;100.00;100779.28;5039545;28;20454;-77
2022/05/28 01:04:18;;;;;;;1.90;0.73;;;;;;;9.41;100.00;100776.81;5037351;28;20988;-77
2022/05/28 01:06:49;;;;;;;3.70;0.80;;;;;;;9.44;100.00;100760.03;5039596;28;20480;-77
2022/05/28 01:09:25;;;;;;;1.13;0.70;;;;;;;9.41;100.00;100774.13;5037354;28;20897;-77
2022/05/28 01:12:06;;;;;;;3.63;1.20;;;;;;;9.45;100.00;100777.84;5039524;28;20430;-77
2022/05/28 01:14:40;;;;;;;4.57;0.90;;;;;;;9.43;100.00;100769.25;5038366;28;20872;-77
2022/05/28 01:17:13;;;;;;;4.27;0.90;;;;;;;9.47;100.00;100769.44;5039510;28;20458;-76
2022/05/28 01:19:49;;;;;;;2.80;1.23;;;;;;;9.43;100.00;100766.53;5038822;28;20495;-76
2022/05/28 01:22:21;;;;;;;2.60;0.87;;;;;;;9.43;100.00;100760.28;5039127;28;20435;-77
2022/05/28 01:25:00;;;;;;;7.20;1.17;;;;;;;9.48;100.00;100752.94;5038507;28;20447;-77
2022/05/28 01:27:34;;;;;;;4.70;0.83;;;;;;;9.49;100.00;100762.66;5038679;28;20427;-77
2022/05/28 01:30:04;;;;;;;1.10;0.90;;;;;;;9.53;98.58;100755.59;5039381;28;20471;-76
2022/05/28 01:32:33;;;;;;;1.50;0.70;;;;;;;9.51;98.95;100751.56;5038756;28;20427;-73
2022/05/28 01:35:03;;;;;;;4.83;1.20;;;;;;;9.46;99.16;100748.91;5027749;28;20462;-76
2022/05/28 01:37:31;;;;;;;1.10;0.73;;;;;;;9.47;98.79;100747.81;5036263;28;20467;-77
2022/05/28 01:39:59;;;;;;;3.23;0.90;;;;;;;9.43;98.80;100738.66;5038428;28;20853;-77
2022/05/28 01:42:29;;;;;;;6.30;1.10;;;;;;;9.33;99.81;100745.81;5037989;28;20455;-75
2022/05/28 01:44:56;;;;;;;9.30;1.40;;;;;;;9.41;99.40;100740.88;5039168;28;20493;-75
2022/05/28 01:47:24;;;;;;;2.50;1.00;;;;;;;9.41;99.65;100730.06;5033351;28;20471;-74
2022/05/28 01:49:52;;;;;;;1.53;0.60;;;;;;;9.44;99.98;100732.19;5025088;28;20459;-76
2022/05/28 01:52:20;;;;;;;1.57;0.60;;;;;;;9.48;98.44;100728.63;5034843;28;20438;-76
2022/05/28 01:54:49;;;;;;;7.63;0.90;;;;;;;9.48;98.03;100725.13;5016159;28;20448;-75
2022/05/28 01:57:16;;;;;;;1.20;0.60;;;;;;;9.45;98.30;100728.38;5015991;28;20475;-76
2022/05/28 01:59:44;;;;;;;4.87;1.13;;;;;;;9.46;99.19;100719.19;5026010;28;21004;-74
2022/05/28 02:02:14;;;;;;;2.67;0.80;;;;;;;9.48;98.25;100727.81;5034825;28;20443;-73
2022/05/28 02:04:43;;;;;;;4.83;0.90;;;;;;;9.42;99.01;100718.13;5034027;28;20467;-73
2022/05/28 02:07:10;;;;;;;1.60;0.83;;;;;;;9.41;99.19;100721.94;5034386;28;20937;-73
2022/05/28 02:09:40;;;;;;;4.50;1.20;;;;;;;9.40;99.56;100706.81;5033514;28;20479;-73
2022/05/28 02:12:16;;;;;;;1.40;1.20;;;;;;;9.43;99.50;100714.34;5034394;28;20463;-73
2022/05/28 02:14:58;;;;;;;1.57;0.83;;;;;;;9.46;98.65;100708.34;5033318;28;20905;-72
2022/05/28 02:17:35;;;;;;;5.33;1.33;;;;;;;9.39;99.26;100703.31;5035428;28;20444;-71
2022/05/28 02:20:11;;;;;;;0.80;0.60;;;;;;;9.43;98.50;100706.22;5034041;28;21004;-74
2022/05/28 02:22:44;;;;;;;3.23;1.03;;;;;;;9.43;99.06;100698.13;5035654;28;20431;-74
2022/05/28 02:25:14;;;;;;;3.43;0.90;;;;;;;9.46;98.04;100700.25;5034287;28;20624;-74
2022/05/28 02:27:42;;;;;;;10.07;1.60;;;;;;;9.44;98.71;100694.34;5034966;28;20431;-73
2022/05/28 02:30:12;;;;;;;1.47;1.03;;;;;;;9.44;98.30;100697.84;5033433;28;20895;-72
2022/05/28 02:32:38;;;;;;;5.83;1.10;;;;;;;9.42;98.61;100701.91;5033311;28;20466;-72
2022/05/28 02:35:05;;;;;;;1.63;0.90;;;;;;;9.43;98.01;100688.13;5034808;28;20451;-73
2022/05/28 02:37:32;;;;;;;3.10;0.87;;;;;;;9.43;97.88;100698.13;5034316;28;20467;-72
2022/05/28 02:39:58;;;;;;;6.33;1.40;;;;;;;9.47;97.61;100691.03;5033665;28;20518;-73
2022/05/28 02:42:25;;;;;;;8.20;1.40;;;;;;;9.47;98.32;100688.34;5030501;28;20469;-73
2022/05/28 02:44:52;;;;;;;1.73;0.80;;;;;;;9.44;98.17;100688.94;5033314;28;20485;-72
2022/05/28 02:47:19;;;;;;;2.83;1.20;;;;;;;9.47;97.90;100691.03;5033509;28;20471;-72
2022/05/28 02:49:46;;;;;;;4.67;0.60;;;;;;;9.43;98.43;100687.31;5033246;28;20479;-72
2022/05/28 02:52:12;;;;;;;2.00;0.80;;;;;;;9.45;98.02;100685.94;5034828;28;20450;-72
2022/05/28 02:54:39;;;;;;;9.30;0.90;;;;;;;9.47;98.07;100685.63;5033227;28;20952;-73
2022/05/28 02:57:06;;;;;;;3.93;0.70;;;;;;;9.44;97.40;100680.81;5030977;28;20459;-72
2022/05/28 02:59:33;;;;;;;6.00;1.00;;;;;;;9.44;97.78;100680.81;5033091;28;20497;-71
2022/05/28 03:02:00;;;;;;;1.33;0.50;;;;;;;9.44;97.24;100676.22;5032724;28;20470;-72
2022/05/28 03:04:28;;;;;;;1.50;0.50;;;;;;;9.48;97.12;100674.53;5034589;28;20443;-71
2022/05/28 03:06:54;;;;;;;3.30;0.90;;;;;;;9.51;97.46;100673.13;5032924;28;20463;-71
2022/05/28 03:09:21;;;;;;;1.57;0.87;;;;;;;9.52;97.50;100669.34;5034455;28;20451;-72
2022/05/28 03:11:47;;;;;;;9.83;0.90;;;;;;;9.52;97.59;100674.78;5031839;28;20813;-72
2022/05/28 03:14:14;;;;;;;1.90;0.87;;;;;;;9.52;97.88;100672.06;5021031;28;20498;-73
2022/05/28 03:16:42;;;;;;;1.97;0.87;;;;;;;9.49;97.35;100659.91;5033722;28;20446;-72
2022/05/28 03:19:08;;;;;;;3.00;1.00;;;;;;;9.50;97.03;100664.22;5032923;28;20870;-72
2022/05/28 03:21:36;;;;;;;1.10;0.70;;;;;;;9.53;96.44;100662.84;5034274;28;20439;-72
2022/05/28 03:24:03;;;;;;;11.87;1.23;;;;;;;9.59;97.01;100658.97;5032837;28;20460;-72
2022/05/28 03:26:31;;;;;;;2.20;0.73;;;;;;;9.56;95.75;100664.94;5032520;28;20864;-72
2022/05/28 03:28:58;;;;;;;2.07;0.70;;;;;;;9.59;95.63;100667.88;5034057;28;20509;-72
2022/05/28 03:31:26;;;;;;;5.07;0.80;;;;;;;9.64;95.76;100656.19;5032078;28;20564;-72
2022/05/28 03:33:52;;;;;;;1.20;0.80;;;;;;;9.69;96.06;100658.00;5033611;28;21006;-72
2022/05/28 03:36:20;;;;;;;4.20;1.20;;;;;;;9.72;95.86;100658.22;5032117;28;20516;-73
2022/05/28 03:38:47;;;;;;;2.40;1.03;;;;;;;9.75;96.00;100656.84;5033042;28;20482;-73
2022/05/28 03:41:14;;;;;;;5.00;1.10;;;;;;;9.84;96.04;100657.78;5020018;28;20513;-75
2022/05/28 03:43:40;;;;;;;3.43;1.00;;;;;;;9.89;94.42;100654.22;5033810;28;20481;-75
2022/05/28 03:46:19;;;;;;;2.40;1.20;;;;;;;9.93;94.18;100647.09;5032217;28;20470;-75
2022/05/28 03:48:45;;;;;;;1.10;0.80;;;;;;;9.98;93.72;100645.13;5033805;28;20477;-73
2022/05/28 03:51:12;;;;;;;1.67;1.00;;;;;;;10.02;93.57;100648.84;5031125;28;20850;-73
2022/05/28 03:53:38;;;;;;;4.57;0.90;;;;;;;9.93;93.86;100647.09;5136153;22;21009;-67
2022/05/28 03:56:07;;;;;;;1.17;0.70;;;;;;;9.94;93.52;100646.00;5033292;28;20885;-68
2022/05/28 03:58:33;;;;;;;8.37;0.87;;;;;;;9.95;93.92;100650.31;5033313;28;20827;-68
2022/05/28 04:01:00;;;;;;;1.43;0.80;;;;;;;10.03;93.62;100646.94;5031798;28;20490;-69
2022/05/28 04:03:26;;;;;;;1.80;1.00;;;;;;;10.05;93.10;100648.25;5033774;28;20463;-68
2022/05/28 04:05:53;;;;;;;3.97;0.57;;;;;;;10.10;93.56;100648.19;5032214;28;20459;-68
2022/05/28 04:08:19;;;;;;;4.07;1.90;;;;;;;10.10;94.38;100640.06;5033626;28;20451;-68
2022/05/28 04:10:46;;;;;;;1.93;0.80;;;;;;;10.18;93.96;100640.47;5031447;28;20811;-69
2022/05/28 04:13:13;;;;;;;2.67;1.17;;;;;;;10.21;93.04;100648.00;5033416;28;20467;-68
2022/05/28 04:15:40;;;;;;;2.00;0.93;;;;;;;10.11;94.94;100649.78;5031672;28;20971;-69
2022/05/28 04:18:07;;;;;;;1.20;0.80;;;;;;;9.91;98.93;100646.59;5033543;28;20443;-67
2022/05/28 04:20:34;;;;;;;1.00;0.70;;;;;;;9.71;100.00;100650.44;5032902;28;20497;-67
2022/05/28 04:23:00;;;;;;;8.73;0.93;;;;;;;9.60;100.00;100652.47;5033255;28;20470;-67
2022/05/28 04:25:27;;;;;;;0.87;0.60;;;;;;;9.49;100.00;100664.53;5032282;28;20948;-67
2022/05/28 04:27:53;;;;;;;1.77;0.80;;;;;;;9.23;100.00;100689.19;5032712;28;20466;-67
2022/05/28 04:30:21;;;;;;;2.90;1.20;;;;;;;9.02;100.00;100671.59;5032502;28;22184;-67
2022/05/28 04:32:48;;;;;;;2.80;0.80;;;;;;;8.97;100.00;100663.56;5033209;28;20509;-66
2022/05/28 04:35:15;;;;;;;17.57;0.97;;;;;;;9.00;100.00;100669.19;5032343;28;20885;-66
2022/05/28 04:37:41;;;;;;;2.00;1.00;;;;;;;9.03;100.00;100675.91;5032376;28;20447;-67
2022/05/28 04:40:12;;;;;;;7.07;1.23;;;;;;;8.96;100.00;100670.06;5032532;28;20483;-65
2022/05/28 04:42:38;;;;;;;4.10;1.10;;;;;;;8.97;100.00;100677.06;5032419;28;20462;-66
2022/05/28 04:45:05;;;;;;;1.23;0.73;;;;;;;8.89;100.00;100673.09;5032456;28;20529;-67
2022/05/28 04:47:33;;;;;;;4.53;0.90;;;;;;;8.93;100.00;100674.13;5032145;28;20466;-67
2022/05/28 04:49:59;;;;;;;1.80;0.90;;;;;;;8.96;100.00;100672.75;5032510;28;20486;-66
2022/05/28 04:52:26;;;;;;;2.33;1.20;;;;;;;8.93;100.00;100676.03;5031994;28;20814;-66
2022/05/28 04:54:52;;;;;;;1.50;1.20;;;;;;;9.01;100.00;100675.41;5032070;28;20487;-66
2022/05/28 04:57:19;;;;;;;2.93;1.10;;;;;;;9.05;100.00;100671.03;5033009;28;20439;-65
2022/05/28 04:59:45;;;;;;;4.70;1.17;;;;;;;9.05;100.00;100663.72;5031441;28;20491;-66
2022/05/28 05:02:12;;;;;;;1.47;0.93;;;;;;;9.07;100.00;100675.06;5033129;28;20439;-67
2022/05/28 05:04:40;;;;;;;3.07;0.80;;;;;;;9.11;100.00;100675.28;5032312;28;21014;-67
2022/05/28 05:07:06;;;;;;;1.80;0.80;;;;;;;9.26;100.00;100675.09;5032702;28;20944;-67
2022/05/28 05:09:33;;;;;;;1.00;0.80;;;;;;;9.39;100.00;100686.31;5032269;28;20471;-68
2022/05/28 05:11:59;;;;;;;1.77;1.00;;;;;;;9.52;100.00;100677.47;5032245;28;20468;-67
2022/05/28 05:14:26;;;;;;;2.50;1.20;;;;;;;9.59;100.00;100683.31;5033042;28;20479;-67
2022/05/28 05:16:52;;;;;;;1.20;0.73;;;;;;;9.65;100.00;100690.28;5031592;28;20470;-68
2022/05/28 05:19:19;;;;;;;1.80;0.80;;;;;;;9.73;100.00;100686.88;5033112;28;20447;-68
2022/05/28 05:21:47;;;;;;;6.13;1.33;;;;;;;9.77;100.00;100679.00;5033994;28;20526;-67
2022/05/28 05:24:14;;;;;;;0.80;0.50;;;;;;;9.78;100.00;100683.28;5036537;28;20467;-70
2022/05/28 05:26:40;;;;;;;4.70;0.70;;;;;;;9.85;100.00;100684.53;5035750;28;20467;-66
2022/05/28 05:29:06;;;;;;;2.00;0.80;;;;;;;9.83;100.00;100681.34;5036468;28;20482;-67
2022/05/28 05:31:33;;;;;;;2.50;1.00;;;;;;;9.91;100.00;100681.75;5036506;28;20450;-64
2022/05/28 05:33:59;;;;;;;1.47;0.80;;;;;;;10.00;100.00;100690.81;5036326;28;20473;-65
2022/05/28 05:36:26;;;;;;;1.53;1.00;;;;;;;10.01;100.00;100682.41;5036217;28;20836;-64
2022/05/28 05:38:53;;;;;;;6.10;1.13;;;;;;;9.93;100.00;100690.41;5036225;28;20455;-64
2022/05/28 05:41:20;;;;;;;2.70;0.70;;;;;;;9.83;100.00;100699.47;5035592;28;20533;-65
2022/05/28 05:43:46;;;;;;;3.70;0.60;;;;;;;9.87;98.60;100686.94;5035855;28;20988;-66
2022/05/28 05:46:13;;;;;;;2.00;1.40;;;;;;;9.85;98.83;100700.78;5035033;28;20458;-64
2022/05/28 05:48:40;;;;;;;2.63;0.83;;;;;;;9.92;98.97;100695.00;5035624;28;20466;-64
2022/05/28 05:51:08;;;;;;;5.57;0.93;;;;;;;9.97;97.83;100702.25;5035373;28;20466;-63
2022/05/28 05:53:35;;;;;;;1.77;0.80;;;;;;;10.00;98.09;100683.50;5034968;28;20494;-63
2022/05/28 05:56:03;;;;;;;3.63;1.20;;;;;;;10.01;99.16;100695.94;5035999;28;20439;-63
2022/05/28 05:58:30;;;;;;;1.47;0.53;;;;;;;10.11;98.00;100697.69;5035145;28;20466;-63
2022/05/28 06:00:56;;;;;;;3.47;0.80;;;;;;;10.13;97.58;100691.97;5034815;28;20490;-63
2022/05/28 06:03:23;;;;;;;1.13;0.60;;;;;;;10.16;96.04;100707.63;5035015;28;20529;-63
2022/05/28 06:05:49;;;;;;;1.80;1.00;;;;;;;10.18;95.49;100703.53;5035063;28;20459;-62
2022/05/28 06:08:16;;;;;;;2.03;0.70;;;;;;;10.22;97.43;100709.16;5035752;28;20478;-63
2022/05/28 06:10:43;;;;;;;2.60;0.90;;;;;;;10.28;96.03;100711.53;5034923;28;20450;-65
2022/05/28 06:13:10;;;;;;;1.37;0.70;;;;;;;10.29;94.66;100720.44;5034595;28;20518;-62
2022/05/28 06:15:37;;;;;;;1.23;0.73;;;;;;;10.43;94.76;100726.69;5034913;28;20443;-65
2022/05/28 06:18:04;;;;;;;10.63;1.10;;;;;;;10.35;94.34;100714.63;5034455;28;20467;-63
2022/05/28 06:20:30;;;;;;;1.00;0.60;;;;;;;10.46;93.67;100711.78;5035433;28;20483;-62
2022/05/28 06:22:57;;;;;;;2.50;0.90;;;;;;;10.51;92.43;100722.53;5033998;28;20574;-62
2022/05/28 06:25:23;;;;;;;1.63;0.60;;;;;;;10.47;94.19;100716.09;5034347;28;20532;-62
2022/05/28 06:27:50;;;;;;;1.63;0.60;;;;;;;10.64;92.67;100713.63;5035289;28;20503;-63
2022/05/28 06:30:18;;;;;;;1.00;0.80;;;;;;;10.71;92.45;100716.72;5034434;28;20459;-62
2022/05/28 06:32:44;;;;;;;1.37;0.60;;;;;;;10.77;90.85;100718.25;5034515;28;20443;-63
2022/05/28 06:35:11;;;;;;;1.67;0.70;;;;;;;10.82;89.74;100718.16;5034095;28;20462;-63
2022/05/28 06:37:37;;;;;;;2.50;0.70;;;;;;;10.88;89.05;100715.34;5035240;28;20446;-62
2022/05/28 06:40:05;;;;;;;0.90;0.50;;;;;;;10.91;87.67;100714.78;5033849;28;20490;-62
2022/05/28 06:42:32;;;;;;;2.87;0.60;;;;;;;10.95;88.22;100715.78;5035132;28;20443;-60
2022/05/28 06:44:59;;;;;;;2.20;0.77;;;;;;;11.00;87.57;100713.75;5034340;28;20466;-62
2022/05/28 06:47:27;;;;;;;1.10;0.70;;;;;;;11.03;89.09;100713.16;5034225;28;20554;-62
2022/05/28 06:52:34;;;;;;;2.97;0.93;;;;;;;11.15;87.59;100715.38;5033529;28;20988;-61
2022/05/28 06:55:00;;;;;;;3.90;0.60;;;;;;;11.10;86.50;100739.88;5034509;28;20451;-64
2022/05/28 06:57:27;;;;;;;20.53;1.47;;;;;;;11.01;87.59;100707.22;5033028;28;20869;-63
2022/05/28 06:59:53;;;;;;;2.30;0.83;;;;;;;11.01;87.83;100707.22;5034068;28;20459;-65
2022/05/28 07:02:19;;;;;;;1.10;0.60;;;;;;;11.15;88.93;100707.22;5033982;28;20482;-63
2022/05/28 07:04:47;;;;;;;1.83;0.70;;;;;;;11.23;88.17;100709.25;5034740;28;20467;-67
2022/05/28 07:07:14;;;;;;;2.33;1.00;;;;;;;11.34;89.00;100724.22;5034086;28;20964;-66
2022/05/28 07:09:40;;;;;;;1.67;0.60;;;;;;;11.34;88.47;100724.22;5034611;28;20451;-69
2022/05/28 07:12:07;;;;;;;7.00;1.67;;;;;;;11.49;87.22;100722.28;5031158;28;22045;-68
2022/05/28 07:14:34;;;;;;;0.73;0.47;;;;;;;11.63;85.41;100715.72;5019872;28;20514;-67
2022/05/28 07:17:00;;;;;;;1.83;0.70;;;;;;;11.73;86.54;100719.31;5034521;28;20480;-69
2022/05/28 07:19:27;;;;;;;1.03;0.70;;;;;;;11.74;84.02;100716.31;5033260;28;20458;-69
2022/05/28 07:21:54;;;;;;;0.90;0.50;;;;;;;11.89;83.96;100725.25;5033016;28;20486;-69
2022/05/28 07:24:21;;;;;;;3.63;0.50;;;;;;;11.93;84.51;100718.09;5033481;28;20459;-67
2022/05/28 07:26:51;;;;;;;1.63;0.60;;;;;;;12.04;83.88;100709.41;5034387;28;20447;-68
2022/05/28 07:29:17;;;;;;;0.70;0.40;;;;;;;12.12;81.30;100718.72;5033570;28;20461;-69
2022/05/28 07:31:44;;;;;;;1.77;0.63;;;;;;;12.07;83.65;100722.34;5030631;28;20462;-67
2022/05/28 07:34:11;;;;;;;1.40;0.70;;;;;;;11.99;82.13;100723.09;5033755;28;20581;-71
2022/05/28 07:36:37;;;;;;;1.10;0.50;;;;;;;12.09;82.81;100717.44;5029256;28;20995;-68
2022/05/28 07:39:05;;;;;;;1.27;0.87;;;;;;;12.25;82.55;100722.50;5026967;28;20483;-69
2022/05/28 07:41:32;;;;;;;0.90;0.60;;;;;;;12.31;79.55;100724.00;5014228;28;20492;-67
2022/05/28 07:43:59;;;;;;;1.00;0.53;;;;;;;12.35;78.97;100720.34;5013403;28;20480;-71
2022/05/28 07:46:29;;;;;;;1.50;1.00;;;;;;;12.33;79.44;100721.75;5031222;28;20977;-69
2022/05/28 07:48:57;;;;;;;3.03;1.00;;;;;;;12.32;76.26;100714.72;5032821;28;20463;-69
2022/05/28 07:51:24;;;;;;;9.00;1.23;;;;;;;12.32;76.89;100720.16;5032228;28;20462;-70
2022/05/28 07:53:50;;;;;;;0.83;0.70;;;;;;;12.41;78.94;100712.06;5016373;28;20503;-70
2022/05/28 07:56:18;;;;;;;1.80;0.80;;;;;;;12.53;81.47;100698.72;5024881;28;20459;-71
2022/05/28 07:58:45;;;;;;;3.57;1.13;;;;;;;12.61;75.79;100711.53;5033601;28;20454;-68
2022/05/28 08:01:19;;;;;;;10.77;1.60;;;;;;;12.65;74.63;100715.22;5030928;28;20487;-69
2022/05/28 08:03:45;;;;;;;3.40;1.03;;;;;;;12.67;74.97;100713.03;5032310;28;21004;-69
2022/05/28 08:06:11;;;;;;;5.07;0.90;;;;;;;12.87;76.03;100709.75;5033644;28;20445;-70
2022/05/28 08:08:38;;;;;;;1.23;0.50;;;;;;;13.08;73.04;100714.63;5032798;28;20471;-68
2022/05/28 08:11:04;;;;;;;1.80;1.10;;;;;;;13.14;73.99;100711.44;5033575;28;20465;-68
2022/05/28 08:13:32;;;;;;;0.90;0.67;;;;;;;13.23;71.50;100716.16;5025421;28;20479;-69
2022/05/28 08:16:01;;;;;;;11.30;1.40;;;;;;;13.30;70.83;100706.41;5025431;28;20858;-69
2022/05/28 08:18:28;;;;;;;3.00;0.60;;;;;;;13.28;72.13;100710.56;5032609;28;20459;-68
2022/05/28 08:23:43;;;;;;;2.00;0.87;;;;;;;13.33;71.11;100716.69;5030080;28;20474;-68
2022/05/28 08:26:11;;;;;;;1.97;0.90;;;;;;;13.14;71.17;100719.59;5025127;28;20463;-71
2022/05/28 08:28:41;;;;;;;3.20;1.20;;;;;;;13.00;71.36;100712.69;5026310;28;20467;-67
2022/05/28 08:31:07;;;;;;;1.00;0.50;;;;;;;13.03;72.37;100717.50;5026619;28;20566;-69
2022/05/28 08:33:34;;;;;;;3.47;1.00;;;;;;;13.12;70.64;100715.63;5032013;28;20533;-66
2022/05/28 08:36:01;;;;;;;0.90;0.57;;;;;;;13.43;71.25;100709.34;5033046;28;20452;-66
2022/05/28 08:38:28;;;;;;;1.10;0.70;;;;;;;13.58;66.64;100722.47;5031875;28;20977;-65
2022/05/28 08:40:59;;;;;;;1.83;0.60;;;;;;;13.45;67.44;100707.88;5022899;28;20495;-66
2022/05/28 08:43:29;;;;;;;0.80;0.60;;;;;;;13.23;69.47;100737.91;5021093;28;21039;-67
2022/05/28 08:45:58;;;;;;;1.60;0.93;;;;;;;12.98;69.79;100736.69;5032151;28;20470;-66
2022/05/28 08:48:34;;;;;;;1.53;0.70;;;;;;;12.98;69.93;100728.53;5032240;28;20459;-66
2022/05/28 08:51:04;;;;;;;4.00;1.00;;;;;;;13.15;72.75;100728.59;5032957;28;20430;-66
2022/05/28 08:53:39;;;;;;;2.50;0.50;;;;;;;13.44;71.63;100719.09;5030722;28;20494;-66
2022/05/28 08:56:06;;;;;;;2.47;1.00;;;;;;;13.77;66.66;100712.09;5030652;28;20465;-66
2022/05/28 08:58:35;;;;;;;1.30;0.70;;;;;;;14.07;67.80;100723.16;5033135;28;20463;-66
2022/05/28 09:01:06;;;;;;;1.73;0.70;;;;;;;14.28;65.52;100735.00;5035255;28;20506;-66
2022/05/28 09:03:43;;;;;;;2.30;0.77;;;;;;;14.29;61.96;100725.69;5036272;28;20482;-67
2022/05/28 09:06:13;;;;;;;2.40;0.63;;;;;;;14.34;63.29;100760.97;5034527;28;20475;-66
2022/05/28 09:08:42;;;;;;;2.70;0.90;;;;;;;14.31;62.20;100748.00;5034823;28;20424;-68
2022/05/28 09:11:14;;;;;;;1.47;0.80;;;;;;;14.15;63.11;100744.16;5035832;28;20450;-67
2022/05/28 09:13:44;;;;;;;2.10;0.87;;;;;;;14.18;62.43;100732.63;5036825;28;20490;-66
2022/05/28 09:16:25;;;;;;;3.10;0.53;;;;;;;14.17;63.50;100743.84;5036786;28;20465;-66
2022/05/28 09:18:54;;;;;;;0.70;0.50;;;;;;;14.09;62.83;100750.88;5036923;28;20423;-66
2022/05/28 09:21:22;;;;;;;1.10;0.70;;;;;;;14.14;63.53;100753.44;5036291;28;21011;-65
2022/05/28 09:23:53;;;;;;;1.70;0.70;;;;;;;14.22;61.88;100741.75;5036579;28;20557;-65
2022/05/28 09:26:27;;;;;;;2.27;0.60;;;;;;;14.23;61.16;100750.72;5036653;28;20427;-66
2022/05/28 09:29:05;;;;;;;0.80;0.50;;;;;;;14.12;61.91;100747.50;5036479;28;20502;-66
2022/05/28 09:31:46;;;;;;;7.00;0.80;;;;;;;14.15;61.80;100752.31;5036516;28;20430;-66
2022/05/28 09:34:34;;;;;;;2.40;0.90;;;;;;;14.35;63.84;100743.50;5036190;28;20991;-66
2022/05/28 09:37:16;;;;;;;3.13;1.33;;;;;;;14.36;58.89;100738.84;5036293;28;20427;-65
2022/05/28 09:39:52;;;;;;;0.93;0.60;;;;;;;14.46;58.86;100733.06;5036362;28;20427;-66
2022/05/28 09:42:25;;;;;;;3.90;1.00;;;;;;;14.53;59.45;100740.78;5036249;28;20556;-66
2022/05/28 09:45:07;;;;;;;3.87;1.37;;;;;;;14.44;58.49;100732.59;5036168;28;20505;-66
2022/05/28 09:47:46;;;;;;;2.47;0.70;;;;;;;14.23;62.09;100758.91;5036179;28;20838;-66
2022/05/28 09:50:22;;;;;;;1.73;0.50;;;;;;;14.16;63.06;100766.75;5035884;28;20967;-65
2022/05/28 09:55:58;;;;;;;1.20;0.60;;;;;;;14.03;66.92;100782.09;5075036;22;20555;-73
2022/05/28 09:58:30;;;;;;;8.23;0.87;;;;;;;13.97;66.12;100765.13;5055636;28;20838;-72
2022/05/28 10:01:05;;;;;;;0.77;0.50;;;;;;;14.01;64.86;100760.66;5055534;28;20458;-72
2022/05/28 10:06:18;;;;;;;1.87;0.70;;;;;;;14.48;64.56;100754.56;5055793;28;20516;-75
2022/05/28 10:08:45;;;;;;;1.10;0.67;;;;;;;14.54;66.42;100764.19;5054522;28;20485;-73
2022/05/28 10:11:15;;;;;;;1.47;0.50;;;;;;;14.50;65.24;100755.84;5055595;28;20450;-73
2022/05/28 10:13:44;;;;;;;1.50;0.80;;;;;;;14.48;65.17;100752.66;5055537;28;20427;-73
2022/05/28 10:16:12;;;;;;;1.60;0.90;;;;;;;14.52;66.94;100750.06;5055402;28;20470;-72
2022/05/28 10:18:46;;;;;;;1.10;0.70;;;;;;;14.63;65.36;100751.34;5055424;28;20450;-72
2022/05/28 10:21:17;;;;;;;3.97;1.13;;;;;;;14.65;64.39;100754.53;5055364;28;20429;-72
2022/05/28 10:23:50;;;;;;;3.00;0.97;;;;;;;14.77;63.81;100741.03;5055398;28;20419;-73
2022/05/28 10:26:21;;;;;;;12.77;0.80;;;;;;;14.95;62.42;100740.97;5054883;28;20462;-73
2022/05/28 10:28:49;;;;;;;2.60;0.90;;;;;;;15.22;58.52;100732.34;5055283;28;20453;-73
2022/05/28 10:31:18;;;;;;;2.30;0.83;;;;;;;15.49;59.63;100735.75;5055290;28;20449;-73
2022/05/28 10:33:46;;;;;;;1.47;0.60;;;;;;;15.70;58.46;100738.53;5055153;28;20442;-72
2022/05/28 10:36:17;;;;;;;3.33;0.80;;;;;;;15.80;57.83;100741.66;5055004;28;20458;-72
2022/05/28 10:38:44;;;;;;;0.70;0.40;;;;;;;15.62;57.17;100738.22;5055169;28;20438;-73
2022/05/28 10:41:20;;;;;;;0.90;0.70;;;;;;;15.55;57.09;100732.50;5055587;28;20447;-72
2022/05/28 10:43:47;;;;;;;1.93;0.67;;;;;;;15.32;57.54;100736.66;5055113;28;20458;-72
2022/05/28 10:46:27;;;;;;;1.40;0.93;;;;;;;15.30;55.54;100744.38;5054872;28;20462;-73
2022/05/28 10:49:08;;;;;;;7.70;1.13;;;;;;;15.39;57.06;100739.66;5055176;28;20434;-72
2022/05/28 10:51:46;;;;;;;6.23;1.00;;;;;;;15.63;56.59;100731.66;5054940;28;20427;-72
2022/05/28 10:54:24;;;;;;;3.50;0.70;;;;;;;15.56;53.84;100736.81;5054338;28;20946;-73
2022/05/28 10:56:56;;;;;;;0.87;0.50;;;;;;;15.62;52.17;100731.97;5054723;28;20426;-72
2022/05/28 10:59:34;;;;;;;0.90;0.40;;;;;;;15.92;51.37;100737.41;5054735;28;20508;-72
2022/05/28 11:02:10;;;;;;;2.33;0.90;;;;;;;16.17;52.46;100733.69;5054651;28;20906;-72
2022/05/28 11:05:03;;;;;;;3.37;0.73;;;;;;;16.33;51.72;100723.72;5054635;28;20540;-72
2022/05/28 11:07:48;;;;;;;2.30;0.60;;;;;;;16.26;52.42;100731.66;5049706;28;20975;-72
2022/05/28 11:10:42;;;;;;;1.23;0.50;;;;;;;16.30;52.00;100740.81;5054561;28;20431;-72
2022/05/28 11:13:29;;;;;;;2.27;0.93;;;;;;;16.45;52.76;100731.16;5055191;28;20446;-75
2022/05/28 11:16:07;;;;;;;1.70;0.87;;;;;;;16.77;52.26;100726.03;5054481;28;21006;-73
2022/05/28 11:18:48;;;;;;;4.57;0.83;;;;;;;17.01;50.54;100741.69;5054684;28;20422;-72
2022/05/28 11:21:31;;;;;;;2.40;1.20;;;;;;;16.93;51.03;100726.19;5054303;28;20434;-72
2022/05/28 11:24:22;;;;;;;1.70;0.80;;;;;;;17.44;51.34;100734.84;5054273;28;20434;-72
2022/05/28 11:26:57;;;;;;;1.50;0.83;;;;;;;17.71;51.69;100741.53;5054190;28;20431;-72
2022/05/28 11:29:42;;;;;;;3.83;1.03;;;;;;;17.56;49.33;100732.91;5054206;28;20433;-72
2022/05/28 11:32:14;;;;;;;0.80;0.47;;;;;;;16.56;55.90;100765.16;5054605;28;20863;-72
2022/05/28 11:34:48;;;;;;;18.07;1.70;;;;;;;15.75;65.10;100763.72;5054059;28;20458;-71
2022/05/28 11:37:23;;;;;;;1.80;0.90;;;;;;;15.33;70.81;100758.16;5054054;28;20426;-72
2022/05/28 11:39:56;;;;;;;5.53;1.00;;;;;;;15.08;69.43;100754.41;5053932;28;20434;-71
2022/05/28 11:42:31;;;;;;;3.90;1.00;;;;;;;14.74;70.79;100746.34;5054241;28;20469;-71
2022/05/28 11:45:02;;;;;;;1.20;0.70;;;;;;;14.96;69.51;100750.75;5053825;28;20473;-72
2022/05/28 11:47:39;;;;;;;12.17;1.17;;;;;;;15.59;68.35;100749.03;5053577;28;20494;-72